Latest Weather Observations for Edithburgh

IDS60801

Issued at 12:35 pm CST Wednesday 17 September 2014 (issued every 30 minutes, with the page automatically refreshed every 10 minutes)

About weather observations | Map of weather stations | Latest weather observations for SA | Other Formats
Station Details ID: 022046 Name: EDITHBURGH Lat: -35.11 Lon: 137.74 Height: 6.0 m
Data from the previous 72 hours. | See also: Recent months at Edithburgh
Date/Time
CST
Temp
°C
App
Temp
°C
Dew
Point
Rel
Hum
%
Delta-T
°C
Wind Press
QNH
hPa
Press
MSL
hPa
Rain
since 9 am
mm
Dir
 
Spd
km/h
Gust
km/h
Spd
kts
Gust
kts
17/12:30pm 15.4 11.5 7.3 58 4.0 SW 17 24 9 13 1022.6 1022.5 0.0
17/12:00pm 15.6 12.1 7.3 57 4.1 SSW 15 22 8 12 1022.6 1022.5 0.0
17/11:30am 15.5 11.5 6.7 55 4.3 SW 17 24 9 13 1022.9 1022.8 0.0
17/11:00am 15.6 11.9 8.0 60 3.8 SSW 17 26 9 14 1022.9 1022.8 0.0
17/10:30am 15.1 10.9 7.6 61 3.7 SSW 19 26 10 14 1022.7 1022.6 0.0
17/10:00am 14.4 10.3 7.7 64 3.3 SSW 19 24 10 13 1022.6 1022.5 0.0
17/09:30am 14.4 11.1 8.2 66 3.1 SSW 15 24 8 13 1022.4 1022.3 0.0
17/09:00am 14.0 9.9 8.6 70 2.7 SSW 20 30 11 16 1022.2 1022.1 1.8
17/08:30am 13.7 10.5 8.3 70 2.7 SW 15 20 8 11 1021.9 1021.8 1.8
17/08:00am 13.1 9.6 8.7 74 2.2 SW 17 24 9 13 1021.5 1021.4 1.8
17/07:30am 12.4 9.1 8.1 75 2.1 SW 15 20 8 11 1021.1 1021.0 1.8
17/07:00am 11.0 8.1 8.3 83 1.3 SW 13 17 7 9 1020.7 1020.6 1.8
17/06:30am 9.8 7.2 7.7 87 1.0 WSW 11 17 6 9 1020.4 1020.3 1.8
17/06:00am 10.0 7.0 7.7 86 1.1 WSW 13 17 7 9 1020.0 1019.9 1.8
17/05:30am 10.0 7.4 7.7 86 1.1 WSW 11 15 6 8 1019.6 1019.6 1.8
17/05:00am 9.9 7.3 7.8 87 1.0 WSW 11 19 6 10 1019.4 1019.4 1.8
17/04:30am 10.0 7.0 7.9 87 1.0 WSW 13 20 7 11 1019.3 1019.3 1.8
17/04:00am 9.2 7.0 7.9 92 0.6 WSW 9 13 5 7 1019.2 1019.2 1.8
17/03:30am 9.1 6.8 7.6 90 0.7 W 9 13 5 7 1019.0 1019.0 1.8
17/03:00am 10.4 7.9 8.3 87 1.0 WSW 11 17 6 9 1018.9 1018.9 1.8
17/02:30am 10.6 7.5 9.0 90 0.8 SW 15 22 8 12 1019.2 1019.2 1.6
17/02:00am 8.9 5.8 7.2 89 0.8 W 13 17 7 9 1019.2 1019.2 0.0
17/01:30am 8.2 4.9 6.5 89 0.8 WNW 13 17 7 9 1019.4 1019.4 0.0
17/01:00am 8.2 4.8 6.0 86 1.0 WNW 13 17 7 9 1019.5 1019.5 0.0
17/12:30am 8.4 5.5 6.4 87 0.9 WNW 11 13 6 7 1019.6 1019.6 0.0
17/12:00am 8.9 5.5 6.1 82 1.3 WNW 13 17 7 9 1019.9 1019.8 0.0
 
Date/Time
CST
Temp
°C
App
Temp
°C
Dew
Point
Rel
Hum
%
Delta-T
°C
Wind Press
QNH
hPa
Press
MSL
hPa
Rain
since 9 am
mm
Dir
 
Spd
km/h
Gust
km/h
Spd
kts
Gust
kts
16/11:30pm 9.5 6.2 4.5 71 2.2 WSW 11 15 6 8 1019.9 1019.8 0.0
16/11:00pm 9.8 7.2 4.1 67 2.5 WSW 7 11 4 6 1019.7 1019.7 0.0
16/10:30pm 11.3 7.2 4.4 62 3.1 SW 15 20 8 11 1019.9 1019.8 0.0
16/10:00pm 12.4 8.7 4.7 59 3.5 WSW 13 26 7 14 1020.0 1019.9 0.0
16/09:30pm 12.4 7.8 3.9 56 3.8 WSW 17 28 9 15 1019.7 1019.7 0.0
16/09:00pm 12.5 7.9 3.5 54 4.0 SW 17 26 9 14 1019.6 1019.6 0.0
16/08:30pm 12.2 8.1 4.2 58 3.6 WSW 15 22 8 12 1019.2 1019.2 0.0
16/08:00pm 11.9 8.2 4.6 61 3.3 WSW 13 19 7 10 1018.8 1018.8 0.0
16/07:30pm 12.3 8.1 3.8 56 3.8 WSW 15 26 8 14 1018.4 1018.4 0.0
16/07:00pm 12.4 7.7 5.3 62 3.3 WSW 19 30 10 16 1018.2 1018.2 0.0
16/06:30pm 12.8 8.3 6.0 63 3.2 WSW 19 26 10 14 1017.9 1017.9 0.0
16/06:00pm 12.7 8.1 6.6 66 2.9 WSW 20 33 11 18 1017.6 1017.6 0.0
16/05:30pm 13.3 9.0 7.1 66 3.0 WSW 19 26 10 14 1017.4 1017.4 0.0
16/05:00pm 14.2 9.9 7.7 65 3.2 WSW 20 32 11 17 1017.3 1017.3 0.0
16/04:30pm 14.6 10.1 6.8 59 3.8 WSW 20 33 11 18 1017.3 1017.3 0.0
16/04:00pm 15.3 9.7 7.2 58 4.0 WSW 26 41 14 22 1017.0 1017.0 0.0
16/03:30pm 15.3 9.5 6.2 54 4.4 WSW 26 39 14 21 1016.7 1016.7 0.0
16/03:00pm 15.3 9.4 7.7 60 3.8 WSW 28 35 15 19 1016.5 1016.5 0.0
16/02:30pm 16.4 11.8 8.3 58 4.1 WSW 22 32 12 17 1016.7 1016.7 0.0
16/02:00pm 15.5 11.6 8.8 64 3.4 WSW 19 30 10 16 1016.9 1016.9 0.0
16/01:30pm 16.2 12.2 9.0 62 3.7 WSW 20 32 11 17 1016.8 1016.8 0.0
16/01:00pm 17.4 13.8 8.4 55 4.6 WSW 17 28 9 15 1017.1 1017.1 0.0
16/12:30pm 17.0 13.2 7.6 54 4.7 SW 17 30 9 16 1017.5 1017.5 0.0
16/12:00pm 16.5 12.6 7.0 53 4.7 W 17 24 9 13 1017.8 1017.8 0.0
16/11:30am 15.5 10.0 7.4 58 4.0 W 26 35 14 19 1018.1 1018.1 0.0
16/11:00am 16.0 12.6 9.2 64 3.5 WSW 17 22 9 12 1018.3 1018.3 0.0
16/10:30am 16.6 14.1 8.3 58 4.2 SW 11 20 6 11 1018.1 1018.1 0.0
16/10:00am 15.9 14.1 9.3 65 3.4 W 9 17 5 9 1018.3 1018.3 0.0
16/09:30am 14.7 12.3 9.9 73 2.5 W 13 20 7 11 1018.5 1018.5 0.0
16/09:00am 15.1 13.3 10.9 76 2.2 W 11 19 6 10 1018.6 1018.6 0.0
16/08:30am 13.6 11.8 10.9 84 1.4 WNW 11 13 6 7 1018.6 1018.6 0.0
16/08:00am 13.5 12.2 11.4 87 1.1 NW 9 11 5 6 1018.5 1018.5 0.0
16/07:30am 12.0 10.5 10.4 90 0.8 WNW 9 11 5 6 1018.4 1018.4 0.0
16/07:00am 10.3 8.1 9.3 93 0.5 WNW 11 13 6 7 1018.1 1018.1 0.0
16/06:30am 11.5 10.2 9.9 90 0.8 W 7 9 4 5 1017.9 1017.9 0.0
16/06:00am 11.5 10.1 9.5 87 1.0 WSW 7 11 4 6 1017.7 1017.7 0.0
16/05:30am 12.1 10.7 9.5 84 1.3 WSW 7 11 4 6 1017.6 1017.6 0.0
16/05:00am 10.4 8.5 9.0 91 0.7 W 9 13 5 7 1017.5 1017.5 0.0
16/04:30am 11.6 9.9 9.8 89 0.9 WSW 9 13 5 7 1017.3 1017.3 0.0
16/04:00am 10.6 8.3 9.0 90 0.8 WSW 11 15 6 8 1017.1 1017.1 0.0
16/03:30am 11.1 8.5 9.5 90 0.8 WSW 13 15 7 8 1016.9 1016.9 0.0
16/03:00am 10.7 8.9 9.3 91 0.7 WSW 9 15 5 8 1016.9 1016.9 0.0
16/02:30am 10.4 8.5 9.0 91 0.7 WSW 9 11 5 6 1016.9 1016.9 0.0
16/02:00am 10.6 8.4 9.2 91 0.7 WSW 11 15 6 8 1017.1 1017.1 0.0
16/01:30am 11.3 8.7 9.5 89 0.9 WSW 13 19 7 10 1017.4 1017.4 0.0
16/01:00am 11.6 9.5 9.6 87 1.0 WSW 11 17 6 9 1017.7 1017.7 0.0
16/12:30am 12.3 9.9 10.2 87 1.1 WSW 13 20 7 11 1017.9 1017.9 0.0
16/12:00am 12.0 9.9 9.8 86 1.1 WSW 11 17 6 9 1017.8 1017.8 0.0
 
Date/Time
CST
Temp
°C
App
Temp
°C
Dew
Point
Rel
Hum
%
Delta-T
°C
Wind Press
QNH
hPa
Press
MSL
hPa
Rain
since 9 am
mm
Dir
 
Spd
km/h
Gust
km/h
Spd
kts
Gust
kts
15/11:30pm 11.8 9.7 9.8 87 1.0 WSW 11 15 6 8 1017.8 1017.8 0.0
15/11:00pm 11.5 9.4 9.9 90 0.8 WSW 11 17 6 9 1017.8 1017.8 0.0
15/10:30pm 11.9 9.5 9.9 87 1.0 SW 13 19 7 10 1017.8 1017.8 0.0
15/10:00pm 12.5 9.6 9.7 83 1.4 SW 15 19 8 10 1017.8 1017.8 0.0
15/09:30pm 13.5 10.3 10.0 79 1.8 SW 17 22 9 12 1017.9 1017.9 0.0
15/09:00pm 13.2 10.0 10.1 81 1.6 SW 17 24 9 13 1017.7 1017.7 0.0
15/08:30pm 13.6 9.8 9.9 78 1.9 SW 20 26 11 14 1017.8 1017.8 0.0
15/08:00pm 13.4 9.2 9.7 78 1.9 SW 22 32 12 17 1017.6 1017.6 0.0
15/07:30pm 13.8 10.2 9.7 76 2.1 SW 19 28 10 15 1017.4 1017.4 0.0
15/07:00pm 13.6 9.8 9.7 77 2.0 SW 20 30 11 16 1016.8 1016.8 0.0
15/06:30pm 13.7 10.1 9.8 77 2.0 SW 19 30 10 16 1016.2 1016.2 0.0
15/06:00pm 14.2 9.6 9.7 74 2.3 SSW 24 32 13 17 1016.1 1016.1 0.0
15/05:30pm 14.8 10.0 8.9 68 3.0 SSW 24 33 13 18 1015.7 1015.7 0.0
15/05:00pm 15.2 10.6 9.8 70 2.8 SSW 24 33 13 18 1015.3 1015.3 0.0
15/04:30pm 15.0 9.4 8.7 66 3.2 SSW 28 37 15 20 1015.1 1015.1 0.0
15/04:19pm 15.1 9.5 8.6 65 3.3 SSW 28 48 15 26 1015.1 1015.1 0.0
15/04:00pm 16.0 11.3 9.4 65 3.4 SSW 24 35 13 19 1014.9 1014.9 0.0
15/03:30pm 16.7 13.1 10.5 67 3.3 SW 20 32 11 17 1014.6 1014.6 0.0
15/03:00pm 15.3 11.0 10.8 74 2.4 SW 24 35 13 19 1014.5 1014.5 0.0
15/02:30pm 16.0 11.0 10.9 72 2.7 SW 28 39 15 21 1014.3 1014.3 0.0
15/02:00pm 17.7 13.4 10.8 64 3.7 SW 24 33 13 18 1014.0 1014.0 0.0
15/01:30pm 17.3 12.7 11.0 66 3.4 SW 26 33 14 18 1014.0 1014.0 0.0
15/01:00pm 17.1 14.2 12.2 73 2.7 SSW 19 30 10 16 1013.8 1013.8 0.0
15/12:30pm 16.9 12.5 11.6 71 2.9 SSW 26 35 14 19 1013.7 1013.7 0.0
15/12:00pm 18.1 13.8 11.9 67 3.4 SSW 26 39 14 21 1013.5 1013.5 0.0
15/11:30am 16.5 11.2 11.3 71 2.8 SSW 30 44 16 24 1013.2 1013.2 0.0
15/11:00am 17.9 11.7 11.5 66 3.5 SSW 35 43 19 23 1012.8 1012.8 0.0
15/10:30am 17.3 11.8 10.6 64 3.6 SSW 30 41 16 22 1012.5 1012.5 0.0
15/10:00am 16.7 12.1 10.9 68 3.1 SW 26 37 14 20 1012.2 1012.2 0.0
15/09:30am 15.8 10.0 10.7 71 2.7 SW 32 46 17 25 1011.7 1011.7 0.0
15/09:00am 15.9 10.5 11.0 72 2.6 SW 30 41 16 22 1011.1 1011.1 0.0
15/08:30am 15.3 10.5 11.8 79 1.9 SW 28 39 15 21 1010.7 1010.7 0.0
15/08:00am 15.8 9.6 11.5 75 2.3 SW 35 50 19 27 1010.0 1010.0 0.0
15/07:44am 15.4 10.6 11.7 78 2.0 WSW 28 46 15 25 1009.7 1009.7 0.0
15/07:30am 14.9 10.9 11.9 82 1.6 WSW 24 35 13 19 1009.7 1009.7 0.0
15/07:10am 14.4 9.6 11.6 83 1.5 WSW 28 46 15 25 1009.2 1009.2 0.0
15/07:00am 14.6 10.3 12.0 84 1.4 W 26 35 14 19 1009.3 1009.3 0.0
15/06:30am 14.3 10.5 12.5 89 1.0 W 24 33 13 18 1008.8 1008.8 0.0
15/06:00am 13.8 10.8 12.1 89 0.9 W 19 26 10 14 1008.9 1008.9 0.0
15/05:30am 13.8 10.3 12.1 89 0.9 W 22 30 12 16 1008.8 1008.8 0.0
15/05:00am 13.8 10.3 12.3 91 0.8 NW 22 30 12 16 1008.5 1008.5 0.0
15/04:30am 14.0 10.8 12.0 88 1.1 NW 20 28 11 15 1008.8 1008.8 0.0
15/04:00am 13.4 10.7 11.7 89 0.9 NNW 17 22 9 12 1008.9 1008.9 0.0
15/03:30am 13.4 10.9 11.1 86 1.2 N 15 19 8 10 1009.1 1009.1 0.0
15/03:00am 13.4 10.5 10.9 85 1.3 NNW 17 22 9 12 1009.3 1009.3 0.0
15/02:30am 13.3 10.0 10.8 85 1.3 NNW 19 24 10 13 1009.6 1009.6 0.0
15/02:00am 13.2 9.8 10.7 85 1.3 NNW 19 24 10 13 1009.9 1009.9 0.0
15/01:30am 12.7 7.9 10.2 85 1.3 NW 26 30 14 16 1010.1 1010.1 0.0
15/01:00am 12.6 8.1 9.9 83 1.4 NW 24 33 13 18 1010.0 1010.0 0.0
15/12:30am 11.8 8.6 10.0 89 0.9 NW 17 22 9 12 1010.5 1010.5 0.0
15/12:00am 11.8 9.0 10.0 89 0.9 NW 15 19 8 10 1010.7 1010.7 0.0
 
Date/Time
CST
Temp
°C
App
Temp
°C
Dew
Point
Rel
Hum
%
Delta-T
°C
Wind Press
QNH
hPa
Press
MSL
hPa
Rain
since 9 am
mm
Dir
 
Spd
km/h
Gust
km/h
Spd
kts
Gust
kts
14/11:30pm 12.4 8.8 10.7 89 0.9 WNW 20 24 11 13 1011.1 1011.1 0.0
14/11:00pm 12.9 9.1 11.0 88 1.0 WNW 22 30 12 16 1011.2 1011.2 0.0
14/10:30pm 13.4 9.4 11.9 91 0.8 WNW 24 32 13 17 1011.4 1011.4 0.0
14/10:00pm 13.8 9.0 11.7 87 1.1 WNW 28 33 15 18 1011.3 1011.3 0.0
14/09:30pm 14.6 9.6 11.0 79 1.9 NW 28 35 15 19 1011.1 1011.1 0.0
14/09:24pm 14.8 9.7 10.6 76 2.2 NW 28 35 15 19 1011.2 1011.2 0.0
14/09:00pm 14.2 13.1 10.0 76 2.2 NNW 6 9 3 5 1011.2 1011.2 0.0
14/08:30pm 15.2 14.3 10.5 73 2.5 NNE 6 7 3 4 1011.4 1011.4 0.0
14/08:00pm 16.0 16.4 11.2 73 2.6 CALM 0 0 0 0 1011.5 1011.5 0.0
14/07:30pm 17.2 15.1 11.1 67 3.3 NW 13 24 7 13 1011.8 1011.8 0.0
14/07:00pm 17.0 13.0 11.9 72 2.8 E 24 32 13 17 1010.2 1010.2 0.0
14/06:30pm 17.3 12.5 11.6 69 3.1 E 28 39 15 21 1010.3 1010.3 0.0
14/06:00pm 17.3 12.5 11.8 70 3.0 E 28 35 15 19 1010.6 1010.6 0.0
14/05:30pm 17.4 12.7 11.9 70 3.0 E 28 35 15 19 1011.0 1011.0 0.0
14/05:00pm 17.5 13.1 11.8 69 3.1 E 26 33 14 18 1011.2 1011.2 0.0
14/04:30pm 18.1 14.6 12.1 68 3.3 E 22 33 12 18 1011.7 1011.7 0.0
14/04:00pm 17.9 14.8 12.3 70 3.1 ESE 20 28 11 15 1012.2 1012.2 0.0
14/03:30pm 17.9 15.1 12.7 71 2.9 ESE 19 26 10 14 1012.5 1012.5 0.0
14/03:00pm 18.5 15.5 12.4 67 3.4 ESE 20 26 11 14 1012.8 1012.8 0.0
14/02:30pm 18.1 15.1 12.1 68 3.3 ESE 19 24 10 13 1013.5 1013.5 0.0
14/02:00pm 17.3 14.8 12.2 72 2.8 ESE 17 26 9 14 1014.2 1014.2 0.0
14/01:30pm 17.0 14.4 12.1 73 2.7 ESE 17 20 9 11 1014.9 1014.9 0.0
14/01:00pm 17.3 14.7 10.6 64 3.6 E 15 20 8 11 1015.5 1015.5 0.0

Other Formats:

Comma delimited format used in spreadsheet applications
http://www.bom.gov.au/fwo/IDS60801/IDS60801.94809.axf

JavaScript Object Notation format (JSON) in row-major order
http://www.bom.gov.au/fwo/IDS60801/IDS60801.94809.json